Terminal Aerodrome Forecast
Issued by NWS

Home | Current Version | Previous Version | Graphics & Text | Print | Product List | Glossary On
Versions: 1 2 3 4 5 6 7 8 9 10 11 12 13 14 15 16 17 18 19
777
FTUS43 KGRB 042213 AAB
TAFCWA
TAF AMD
KCWA 042213Z 0422/0518 20003KT P6SM BKN025
      TEMPO 0423/0502 3SM -SN BR BKN015
     FM050200 28005KT P6SM SCT012 BKN025
     FM050700 31005KT P6SM SCT025
     FM051300 31004KT P6SM SCT025 BKN150=

USA.gov is the U.S. government's official web portal to all federal, state and local government web resources and services.